Plentywood, MT

11:12 PM MDT on August 21, 2014 (GMT -0600)
Crosby | Change Station
CLOSE
Current Station
Airport
Location: Crosby,
Elevation: 1949 ft
Nearby Weather Stations

Elev 1949 ft 48.93 °N, 103.30 °W | Updated 17 minutes ago

Clear
Clear
57 °F
Feels Like 57 °F
N
0
Wind Variable Wind from North

Today
High -- | Low -- °F
--% Chance of Precip.
Yesterday
High -- | Low -- °F
Precip. -- in
6:00 AM 8:02 PM
Waning Crescent, 10% visible
Pressure 30.05 in
Visibility 10.0 miles
Clouds Clear
Dew Point 57 °F
Humidity 100%
Rainfall 0.00 in
Snow Depth Not available.
UV 0 out of 12
Pollen 8.10 out of 12
Air Quality Not available.
Flu Activity Not available.
METAR KD50 220455Z AUTO 00000KT 10SM CLR 14/14 A3005 RMK AO2

More Conditions Fewer Conditions

Pressure 30.05 in
Visibility 10.0 miles
Clouds Clear
Dew Point 57 °F
Humidity 100%
Rainfall 0.00 in
Snow Depth Not available.
UV 0 out of 12
Pollen 8.10 out of 12
Air Quality Not available.
Flu Activity Not available.
METAR KD50 220455Z AUTO 00000KT 10SM CLR 14/14 A3005 RMK AO2

More Conditions Fewer Conditions

10-Day Weather Forecast

Almanac

Astronomy

Aug. 21, 2014 Rise Set
Actual Time 6:00 AM MDT 8:02 PM MDT
Civil Twilight 5:25 AM MDT 8:36 PM MDT
Nautical Twilight 4:43 AM MDT 9:18 PM MDT
Astronomical Twilight 3:56 AM MDT 10:05 PM MDT
Moon 2:24 AM MDT (8/21) 5:40 PM MDT (8/21)
Length of Visible Light 15h 10m
Length of Day
14h 02m
Tomorrow will be 3m 20s shorter.
Waning Crescent, 10% of the Moon is Illuminated
Aug 22
Waning Crescent
Aug 25
New
Sep 2
First Quarter
Sep 8
Full
Sep 15
Last Quarter

Yesterday's Extremes

State Highs State Lows

Community

WunderPhotos

Upload Photos

1,746,131 photos uploaded!

Nearby

Snow Depth

Station Depth Elevation
Rocky Boy 0 in 4700 ft
Crystal Lake 0 in 6050 ft
Spur Park 0 in 8100 ft
Onion Park 0 in 7410 ft
Stringer Creek 0 in 6550 ft

Earthquake Activity

City Distance Mag. Time & Date
No recent earthquake activity has been reported nearby.
Minimum magnitude displayed is 2.5.

Coastal Water Temperatures

Place Temperature
No Stations Reporting

Nearby Weather Stations